Time;durP1;ratioP1;P1;durP2;ratioP2;P2;SDS_P1;SDS_P2;PMS_P1;PMS_P2;Temp;Humidity;BMP_temperature;BMP_pressure;BME280_temperature;BME280_humidity;BME280_pressure;Samples;Min_cycle;Max_cycle;Signal;HPM_P1;HPM_P2
2022/10/09 00:01:34;;;;;;;20.73;18.65;;;;;;;;;;10108385;28;20067;-75
2022/10/09 00:06:32;;;;;;;26.98;21.80;;;;;;;;;;10090241;28;20053;-75
2022/10/09 00:11:28;;;;;;;23.90;19.73;;;;;;;;;;10104591;28;20463;-75
2022/10/09 00:16:23;;;;;;;22.60;20.27;;;;;;;;;;10100551;28;20058;-75
2022/10/09 00:21:23;;;;;;;23.35;20.95;;;;;;;;;;10106561;28;20083;-74
2022/10/09 00:26:17;;;;;;;26.60;21.38;;;;;;;;;;10107352;28;20091;-72
2022/10/09 00:31:11;;;;;;;26.13;21.50;;;;;;;;;;10108197;28;20076;-72
2022/10/09 00:36:08;;;;;;;25.23;21.83;;;;;;;;;;10097944;28;20104;-72
2022/10/09 00:41:01;;;;;;;21.98;19.63;;;;;;;;;;10108069;28;20052;-72
2022/10/09 00:45:55;;;;;;;24.17;19.02;;;;;;;;;;10104323;28;20056;-73
2022/10/09 00:50:52;;;;;;;21.27;18.85;;;;;;;;;;10103500;28;20075;-72
2022/10/09 00:55:45;;;;;;;23.27;20.90;;;;;;;;;;10102388;28;20052;-71
2022/10/09 01:00:39;;;;;;;24.52;20.95;;;;;;;;;;10108023;28;20077;-72
2022/10/09 01:06:01;;;;;;;27.63;23.65;;;;;;;;;;10107616;28;20049;-73
2022/10/09 01:11:03;;;;;;;25.90;23.15;;;;;;;;;;10085675;28;20052;-72
2022/10/09 01:16:14;;;;;;;29.50;26.35;;;;;;;;;;10100089;28;20503;-73
2022/10/09 01:21:19;;;;;;;27.27;24.38;;;;;;;;;;10104880;28;20458;-72
2022/10/09 01:26:15;;;;;;;28.90;25.90;;;;;;;;;;10096942;28;20050;-72
2022/10/09 01:31:09;;;;;;;32.30;26.45;;;;;;;;;;10101294;28;20392;-72
2022/10/09 01:36:05;;;;;;;37.63;29.52;;;;;;;;;;10099406;28;20072;-72
2022/10/09 01:41:01;;;;;;;34.22;27.10;;;;;;;;;;10100401;28;20451;-71
2022/10/09 01:46:16;;;;;;;32.38;29.00;;;;;;;;;;10099031;28;20402;-72
2022/10/09 01:51:09;;;;;;;28.95;25.85;;;;;;;;;;10097440;28;20115;-71
2022/10/09 01:56:13;;;;;;;33.97;30.42;;;;;;;;;;10101329;28;20653;-71
2022/10/09 02:01:11;;;;;;;30.77;27.67;;;;;;;;;;10101347;28;20045;-71
2022/10/09 02:06:07;;;;;;;33.60;27.70;;;;;;;;;;10097222;28;20103;-71
2022/10/09 02:11:01;;;;;;;36.17;27.95;;;;;;;;;;10097002;28;20041;-72
2022/10/09 02:16:25;;;;;;;35.75;29.95;;;;;;;;;;10101371;28;20068;-71
2022/10/09 02:21:22;;;;;;;34.83;31.08;;;;;;;;;;10089702;28;20049;-73
2022/10/09 02:26:18;;;;;;;33.25;29.48;;;;;;;;;;10092148;28;20562;-72
2022/10/09 02:31:21;;;;;;;32.63;29.35;;;;;;;;;;10094042;28;20076;-70
2022/10/09 02:36:15;;;;;;;39.88;33.10;;;;;;;;;;10112622;28;20045;-72
2022/10/09 02:41:09;;;;;;;36.17;31.77;;;;;;;;;;10100483;28;20040;-72
2022/10/09 02:46:03;;;;;;;38.78;31.38;;;;;;;;;;10101542;28;20045;-72
2022/10/09 02:50:58;;;;;;;38.13;32.28;;;;;;;;;;10112624;28;20083;-72
2022/10/09 02:55:52;;;;;;;39.60;33.80;;;;;;;;;;10110304;28;20488;-72
2022/10/09 03:00:50;;;;;;;37.13;33.05;;;;;;;;;;10102825;28;20180;-72
2022/10/09 03:05:44;;;;;;;35.40;31.55;;;;;;;;;;10105317;28;20076;-72
2022/10/09 03:10:38;;;;;;;42.25;33.97;;;;;;;;;;10097997;28;20136;-72
2022/10/09 03:15:37;;;;;;;42.58;33.05;;;;;;;;;;10108992;28;20057;-72
2022/10/09 03:20:34;;;;;;;42.60;33.53;;;;;;;;;;10111392;28;20077;-71
2022/10/09 03:25:29;;;;;;;38.80;34.60;;;;;;;;;;10103616;28;20095;-70
2022/10/09 03:30:23;;;;;;;38.13;33.55;;;;;;;;;;10110789;28;20128;-71
2022/10/09 03:35:17;;;;;;;33.75;30.05;;;;;;;;;;10110588;28;20431;-71
2022/10/09 03:40:10;;;;;;;37.55;32.13;;;;;;;;;;10110530;28;20040;-71
2022/10/09 03:45:06;;;;;;;38.35;31.42;;;;;;;;;;10107030;28;20063;-70
2022/10/09 03:49:59;;;;;;;39.40;32.35;;;;;;;;;;10099028;28;20041;-74
2022/10/09 03:54:53;;;;;;;36.28;31.65;;;;;;;;;;10093255;28;20041;-70
2022/10/09 03:59:47;;;;;;;38.17;31.90;;;;;;;;;;10108688;28;20055;-71
2022/10/09 04:04:44;;;;;;;37.10;30.88;;;;;;;;;;10088543;28;20049;-71
2022/10/09 04:09:37;;;;;;;37.90;33.33;;;;;;;;;;10100013;28;20065;-70
2022/10/09 04:14:30;;;;;;;36.72;32.75;;;;;;;;;;10107993;28;20056;-69
2022/10/09 04:19:23;;;;;;;38.15;34.13;;;;;;;;;;10096708;28;20106;-69
2022/10/09 04:24:17;;;;;;;37.28;32.33;;;;;;;;;;10107806;28;20048;-69
2022/10/09 04:29:11;;;;;;;37.22;33.42;;;;;;;;;;10107197;28;20041;-70
2022/10/09 04:34:05;;;;;;;38.85;33.28;;;;;;;;;;10097701;28;20051;-69
2022/10/09 04:38:59;;;;;;;40.90;33.65;;;;;;;;;;10101686;28;20051;-69
2022/10/09 04:43:55;;;;;;;37.50;33.63;;;;;;;;;;10104154;28;20057;-71
2022/10/09 04:48:48;;;;;;;46.08;35.90;;;;;;;;;;10098376;28;20128;-71
2022/10/09 04:53:42;;;;;;;42.42;37.03;;;;;;;;;;10104463;28;20045;-71
2022/10/09 04:58:38;;;;;;;42.10;35.28;;;;;;;;;;10094780;28;20064;-71
2022/10/09 05:03:31;;;;;;;48.75;36.60;;;;;;;;;;10098753;28;20131;-71
2022/10/09 05:08:25;;;;;;;43.45;37.90;;;;;;;;;;10102061;28;20059;-71
2022/10/09 05:13:18;;;;;;;41.70;35.33;;;;;;;;;;10102099;28;20063;-70
2022/10/09 05:18:12;;;;;;;39.30;35.20;;;;;;;;;;10104226;28;20049;-70
2022/10/09 05:23:06;;;;;;;46.03;35.55;;;;;;;;;;10106441;28;20127;-71
2022/10/09 05:28:01;;;;;;;39.47;35.25;;;;;;;;;;10107388;28;20085;-70
2022/10/09 05:32:54;;;;;;;40.38;35.97;;;;;;;;;;10099788;28;20059;-71
2022/10/09 05:37:48;;;;;;;35.90;32.00;;;;;;;;;;10097869;28;20053;-68
2022/10/09 05:42:42;;;;;;;44.63;35.58;;;;;;;;;;10102132;28;20053;-69
2022/10/09 05:47:36;;;;;;;41.05;34.30;;;;;;;;;;10102986;28;20075;-69
2022/10/09 05:52:29;;;;;;;40.65;34.60;;;;;;;;;;10102753;28;20521;-71
2022/10/09 05:57:22;;;;;;;38.47;34.45;;;;;;;;;;10106090;28;20407;-71
2022/10/09 06:02:23;;;;;;;45.30;36.55;;;;;;;;;;10101392;28;20049;-70
2022/10/09 06:07:17;;;;;;;39.42;34.53;;;;;;;;;;10103847;28;20052;-71
2022/10/09 06:12:11;;;;;;;44.40;36.15;;;;;;;;;;10103451;28;20056;-71
2022/10/09 06:17:05;;;;;;;45.47;36.40;;;;;;;;;;10103342;28;20080;-72
2022/10/09 06:22:00;;;;;;;41.10;35.75;;;;;;;;;;10111071;28;20053;-71
2022/10/09 06:26:54;;;;;;;43.40;35.97;;;;;;;;;;10111879;28;20423;-72
2022/10/09 06:31:47;;;;;;;42.47;37.03;;;;;;;;;;10105112;28;20048;-71
2022/10/09 06:36:40;;;;;;;42.78;37.33;;;;;;;;;;10102216;28;20041;-71
2022/10/09 06:41:35;;;;;;;43.42;38.65;;;;;;;;;;10112616;28;20056;-71
2022/10/09 06:46:42;;;;;;;49.85;41.05;;;;;;;;;;10115891;28;20176;-70
2022/10/09 06:51:36;;;;;;;50.65;40.22;;;;;;;;;;10104966;28;20045;-71
2022/10/09 06:56:31;;;;;;;52.35;43.28;;;;;;;;;;10102885;28;20056;-69
2022/10/09 07:01:25;;;;;;;52.30;43.30;;;;;;;;;;10109345;28;20131;-73
2022/10/09 07:06:20;;;;;;;50.85;40.97;;;;;;;;;;10105585;28;20047;-72
2022/10/09 07:11:41;;;;;;;49.45;43.85;;;;;;;;;;10108113;28;20088;-70
2022/10/09 07:16:38;;;;;;;52.33;42.53;;;;;;;;;;10100742;28;20492;-70
2022/10/09 07:21:33;;;;;;;46.88;42.00;;;;;;;;;;10104947;28;20052;-71
2022/10/09 07:26:28;;;;;;;52.72;44.22;;;;;;;;;;10106344;28;20464;-70
2022/10/09 07:31:23;;;;;;;53.13;43.45;;;;;;;;;;10107143;28;20045;-69
2022/10/09 07:36:17;;;;;;;59.35;47.42;;;;;;;;;;10104347;28;20513;-68
2022/10/09 07:41:11;;;;;;;53.20;45.65;;;;;;;;;;10101512;28;20068;-68
2022/10/09 07:46:09;;;;;;;53.90;46.80;;;;;;;;;;10094977;28;20115;-66
2022/10/09 07:51:08;;;;;;;;;;;;;;;;;;10094368;28;20053;-69
2022/10/09 07:56:03;;;;;;;52.83;44.88;;;;;;;;;;10094978;28;19925;-69
2022/10/09 08:01:02;;;;;;;48.08;40.20;;;;;;;;;;10099714;28;20087;-69
2022/10/09 08:05:56;;;;;;;47.85;37.97;;;;;;;;;;10094608;28;20049;-69
2022/10/09 08:10:50;;;;;;;40.13;35.05;;;;;;;;;;10087746;28;20052;-67
2022/10/09 08:15:44;;;;;;;44.00;33.15;;;;;;;;;;10094881;28;20147;-74
2022/10/09 08:20:38;;;;;;;30.20;26.67;;;;;;;;;;10095814;28;20049;-65
2022/10/09 08:25:36;;;;;;;28.92;24.33;;;;;;;;;;10085595;28;20057;-65
2022/10/09 08:30:30;;;;;;;28.37;24.90;;;;;;;;;;10096217;28;20064;-66
2022/10/09 08:35:24;;;;;;;26.15;22.98;;;;;;;;;;10100611;28;20044;-67
2022/10/09 08:40:45;;;;;;;29.92;25.30;;;;;;;;;;10099712;28;20429;-67
2022/10/09 08:45:39;;;;;;;30.02;24.42;;;;;;;;;;10086710;28;20389;-66
2022/10/09 08:50:37;;;;;;;33.75;25.45;;;;;;;;;;10090747;28;20056;-68
2022/10/09 08:55:38;;;;;;;35.63;28.42;;;;;;;;;;10092635;28;20471;-66
2022/10/09 09:01:13;;;;;;;31.65;26.00;;;;;;;;;;10101942;28;20467;-66
2022/10/09 09:06:13;;;;;;;25.98;22.27;;;;;;;;;;10071374;28;20052;-66
2022/10/09 09:11:24;;;;;;;30.00;24.42;;;;;;;;;;10100081;28;20098;-66
2022/10/09 09:16:50;;;;;;;29.83;21.85;;;;;;;;;;10097072;28;20060;-65
2022/10/09 09:22:07;;;;;;;32.50;27.20;;;;;;;;;;10077543;28;20140;-66
2022/10/09 09:27:05;;;;;;;33.85;26.08;;;;;;;;;;10098643;28;20048;-65
2022/10/09 09:32:00;;;;;;;29.15;24.88;;;;;;;;;;10093590;28;20041;-65
2022/10/09 09:36:58;;;;;;;29.10;23.80;;;;;;;;;;10099433;28;20084;-65
2022/10/09 09:41:52;;;;;;;33.20;25.80;;;;;;;;;;10102078;28;20049;-66
2022/10/09 09:46:46;;;;;;;32.15;26.42;;;;;;;;;;10099584;28;20099;-65
2022/10/09 09:51:40;;;;;;;36.97;28.60;;;;;;;;;;10095519;28;20401;-66
2022/10/09 09:56:41;;;;;;;35.35;27.42;;;;;;;;;;10097811;28;20042;-67
2022/10/09 10:02:15;;;;;;;37.58;26.67;;;;;;;;;;10098181;28;20060;-66
2022/10/09 10:07:09;;;;;;;27.75;23.75;;;;;;;;;;10093512;28;20187;-66
2022/10/09 10:12:05;;;;;;;33.45;23.25;;;;;;;;;;10090914;28;20045;-66
2022/10/09 10:17:00;;;;;;;30.40;22.55;;;;;;;;;;10096104;28;20068;-66
2022/10/09 10:22:00;;;;;;;33.25;24.52;;;;;;;;;;10089635;28;20649;-66
2022/10/09 10:26:57;;;;;;;29.38;22.77;;;;;;;;;;10096758;28;20063;-66
2022/10/09 10:32:11;;;;;;;27.25;22.20;;;;;;;;;;10097384;28;20049;-66
2022/10/09 10:37:13;;;;;;;25.33;21.52;;;;;;;;;;10097440;28;20507;-65
2022/10/09 10:42:20;;;;;;;28.10;20.88;;;;;;;;;;10101650;28;20091;-66
2022/10/09 10:47:27;;;;;;;29.33;19.25;;;;;;;;;;10098264;28;20053;-66
2022/10/09 10:52:35;;;;;;;21.77;17.75;;;;;;;;;;10089551;28;20630;-65
2022/10/09 10:57:38;;;;;;;20.08;15.52;;;;;;;;;;10098071;28;20448;-65
2022/10/09 11:03:05;;;;;;;19.25;15.07;;;;;;;;;;10090710;28;20557;-65
2022/10/09 11:08:18;;;;;;;15.68;14.13;;;;;;;;;;10114750;28;20418;-64
2022/10/09 11:13:31;;;;;;;18.90;14.57;;;;;;;;;;10119605;28;20057;-65
2022/10/09 11:18:35;;;;;;;17.35;15.57;;;;;;;;;;10119873;28;20053;-65
2022/10/09 11:23:56;;;;;;;15.52;13.18;;;;;;;;;;10115188;28;20056;-65
2022/10/09 11:28:57;;;;;;;16.52;14.60;;;;;;;;;;10119520;28;20052;-65
2022/10/09 11:33:56;;;;;;;15.85;14.25;;;;;;;;;;10107922;28;20127;-65
2022/10/09 11:38:52;;;;;;;13.55;12.13;;;;;;;;;;10113468;28;20045;-65
2022/10/09 11:44:14;;;;;;;12.80;11.55;;;;;;;;;;10111150;28;20102;-65
2022/10/09 11:49:22;;;;;;;13.93;12.52;;;;;;;;;;10119203;28;20048;-65
2022/10/09 11:54:16;;;;;;;;;;;;;;;;;;10123861;28;20056;-65
2022/10/09 11:59:21;;;;;;;15.15;13.75;;;;;;;;;;10115509;28;19927;-64
2022/10/09 12:04:41;;;;;;;13.90;12.50;;;;;;;;;;10120018;28;20046;-66
2022/10/09 12:09:49;;;;;;;21.25;12.43;;;;;;;;;;10106023;28;20055;-64
2022/10/09 12:14:47;;;;;;;17.52;11.63;;;;;;;;;;10106752;28;20076;-64
2022/10/09 12:19:44;;;;;;;16.15;13.27;;;;;;;;;;10109520;28;20144;-63
2022/10/09 12:24:46;;;;;;;15.43;13.52;;;;;;;;;;10111293;28;20495;-65
2022/10/09 12:29:44;;;;;;;13.82;12.45;;;;;;;;;;10103184;28;20057;-65
2022/10/09 12:34:44;;;;;;;13.10;11.83;;;;;;;;;;10103336;28;20488;-65
2022/10/09 12:39:37;;;;;;;12.95;11.70;;;;;;;;;;10107340;28;20128;-64
2022/10/09 12:44:38;;;;;;;11.32;10.15;;;;;;;;;;10105818;28;20440;-65
2022/10/09 12:49:31;;;;;;;15.18;11.45;;;;;;;;;;10104974;28;20064;-63
2022/10/09 12:54:27;;;;;;;12.85;11.48;;;;;;;;;;10111603;28;20041;-64
2022/10/09 12:59:21;;;;;;;13.10;10.98;;;;;;;;;;10103822;28;20372;-64
2022/10/09 13:04:25;;;;;;;15.05;11.15;;;;;;;;;;10111757;28;20053;-64
2022/10/09 13:09:31;;;;;;;11.10;8.75;;;;;;;;;;10115938;28;20447;-63
2022/10/09 13:14:37;;;;;;;10.30;9.00;;;;;;;;;;10126626;28;20041;-63
2022/10/09 13:19:34;;;;;;;9.05;8.10;;;;;;;;;;10112365;28;20045;-63
2022/10/09 13:24:28;;;;;;;8.77;7.70;;;;;;;;;;10097387;28;20079;-63
2022/10/09 13:29:24;;;;;;;7.20;6.28;;;;;;;;;;10097491;28;20389;-63
2022/10/09 13:34:22;;;;;;;8.27;7.45;;;;;;;;;;10102576;28;20053;-63
2022/10/09 13:39:16;;;;;;;9.48;6.80;;;;;;;;;;10100901;28;20048;-65
2022/10/09 13:44:13;;;;;;;7.60;6.63;;;;;;;;;;10099751;28;20053;-65
2022/10/09 13:49:11;;;;;;;10.73;6.78;;;;;;;;;;10091085;28;20059;-64
2022/10/09 13:54:05;;;;;;;7.72;7.03;;;;;;;;;;10101713;28;20442;-63
2022/10/09 13:59:00;;;;;;;7.00;6.30;;;;;;;;;;10097035;28;20095;-65
2022/10/09 14:03:56;;;;;;;6.75;5.97;;;;;;;;;;10091764;28;20053;-65
2022/10/09 14:08:53;;;;;;;10.30;6.60;;;;;;;;;;10101276;28;20124;-66
2022/10/09 14:13:48;;;;;;;9.20;5.78;;;;;;;;;;10096409;28;20106;-70
2022/10/09 14:18:43;;;;;;;7.72;4.97;;;;;;;;;;10100008;28;20067;-71
2022/10/09 14:23:38;;;;;;;6.95;4.88;;;;;;;;;;10094208;28;20511;-72
2022/10/09 14:28:33;;;;;;;9.27;6.47;;;;;;;;;;10106190;28;20049;-69
2022/10/09 14:33:29;;;;;;;5.15;4.63;;;;;;;;;;10105082;28;20156;-69
2022/10/09 14:38:27;;;;;;;8.57;5.07;;;;;;;;;;10106423;28;20128;-68
2022/10/09 14:43:22;;;;;;;8.20;5.07;;;;;;;;;;10106873;28;20459;-70
2022/10/09 14:48:16;;;;;;;10.05;4.80;;;;;;;;;;10099677;28;20472;-69
2022/10/09 14:53:11;;;;;;;12.77;4.55;;;;;;;;;;10110224;28;20117;-70
2022/10/09 14:58:05;;;;;;;10.73;6.70;;;;;;;;;;10107636;28;20052;-70
2022/10/09 15:02:59;;;;;;;6.80;5.32;;;;;;;;;;10107209;28;20041;-69
2022/10/09 15:07:53;;;;;;;10.07;4.60;;;;;;;;;;10098058;28;20539;-69
2022/10/09 15:12:49;;;;;;;4.68;4.20;;;;;;;;;;10107769;28;20102;-69
2022/10/09 15:17:46;;;;;;;5.68;4.13;;;;;;;;;;10098280;28;20424;-67
2022/10/09 15:22:41;;;;;;;5.80;4.50;;;;;;;;;;10104979;28;20049;-68
2022/10/09 15:27:39;;;;;;;5.00;4.32;;;;;;;;;;10102491;28;20243;-68
2022/10/09 15:32:37;;;;;;;5.82;4.63;;;;;;;;;;10104565;28;20057;-69
2022/10/09 15:37:32;;;;;;;6.63;5.60;;;;;;;;;;10101592;28;20431;-68
2022/10/09 15:42:26;;;;;;;7.22;5.20;;;;;;;;;;10102344;28;20083;-69
2022/10/09 15:47:23;;;;;;;12.25;7.85;;;;;;;;;;10098460;28;20443;-68
2022/10/09 15:52:40;;;;;;;8.65;7.28;;;;;;;;;;10102730;28;20455;-69
2022/10/09 15:57:46;;;;;;;12.98;6.55;;;;;;;;;;10102924;28;20040;-70
2022/10/09 16:02:48;;;;;;;10.13;7.57;;;;;;;;;;10105676;28;20474;-69
2022/10/09 16:07:45;;;;;;;24.02;9.27;;;;;;;;;;10106497;28;20049;-69
2022/10/09 16:12:46;;;;;;;8.45;7.72;;;;;;;;;;10099353;28;20127;-73
2022/10/09 16:17:41;;;;;;;11.95;7.75;;;;;;;;;;10102459;28;20776;-67
2022/10/09 16:22:40;;;;;;;16.05;7.13;;;;;;;;;;10096541;28;20096;-68
2022/10/09 16:27:37;;;;;;;9.68;7.60;;;;;;;;;;10096054;28;20055;-69
2022/10/09 16:32:36;;;;;;;9.18;8.25;;;;;;;;;;10108726;28;20110;-68
2022/10/09 16:37:35;;;;;;;10.73;8.35;;;;;;;;;;10116143;28;20365;-67
2022/10/09 16:42:31;;;;;;;;;;;;;;;;;;10116863;28;20047;-66
2022/10/09 16:47:32;;;;;;;25.88;9.95;;;;;;;;;;10113677;28;20418;-66
2022/10/09 16:52:31;;;;;;;13.80;8.60;;;;;;;;;;10113884;28;20079;-66
2022/10/09 16:57:27;;;;;;;10.68;8.27;;;;;;;;;;10115024;28;20045;-67
2022/10/09 17:02:23;;;;;;;13.45;8.88;;;;;;;;;;10113156;28;20111;-67
2022/10/09 17:07:19;;;;;;;11.90;8.60;;;;;;;;;;10114740;28;20107;-67
2022/10/09 17:12:13;;;;;;;9.25;8.25;;;;;;;;;;10110290;28;20586;-66
2022/10/09 17:17:08;;;;;;;12.30;8.95;;;;;;;;;;10108374;28;20137;-66
2022/10/09 17:22:02;;;;;;;9.43;7.85;;;;;;;;;;10113498;28;20064;-66
2022/10/09 17:26:59;;;;;;;9.77;8.73;;;;;;;;;;10113636;28;20431;-67
2022/10/09 17:31:54;;;;;;;11.02;8.98;;;;;;;;;;10112223;28;20144;-67
2022/10/09 17:36:47;;;;;;;15.82;9.63;;;;;;;;;;10126122;28;20072;-67
2022/10/09 17:41:44;;;;;;;11.35;8.15;;;;;;;;;;10132040;28;20052;-67
2022/10/09 17:46:38;;;;;;;13.15;9.95;;;;;;;;;;10130915;28;20049;-66
2022/10/09 17:51:33;;;;;;;14.57;9.07;;;;;;;;;;10125495;28;20048;-67
2022/10/09 17:56:28;;;;;;;20.30;9.57;;;;;;;;;;10114281;28;20041;-67
2022/10/09 18:01:23;;;;;;;10.55;9.07;;;;;;;;;;10122300;28;20111;-68
2022/10/09 18:06:17;;;;;;;10.35;9.20;;;;;;;;;;10123727;28;20095;-67
2022/10/09 18:11:16;;;;;;;12.93;10.25;;;;;;;;;;10122440;28;20049;-67
2022/10/09 18:16:12;;;;;;;9.88;8.85;;;;;;;;;;10118598;28;20053;-67
2022/10/09 18:21:08;;;;;;;13.88;9.50;;;;;;;;;;10111568;28;21330;-72
2022/10/09 18:26:27;;;;;;;15.18;9.07;;;;;;;;;;10108788;28;20081;-67
2022/10/09 18:31:22;;;;;;;11.35;8.98;;;;;;;;;;10104494;28;20055;-67
2022/10/09 18:36:19;;;;;;;12.35;9.38;;;;;;;;;;10111373;28;20080;-67
2022/10/09 18:41:12;;;;;;;11.70;8.93;;;;;;;;;;10114692;28;20115;-65
2022/10/09 18:46:07;;;;;;;11.35;9.43;;;;;;;;;;10106941;28;20053;-65
2022/10/09 18:51:02;;;;;;;11.18;9.63;;;;;;;;;;10117019;28;20057;-66
2022/10/09 18:55:55;;;;;;;10.75;9.50;;;;;;;;;;10111498;28;20499;-67
2022/10/09 19:00:49;;;;;;;13.82;10.95;;;;;;;;;;10128932;28;20056;-67
2022/10/09 19:05:43;;;;;;;14.18;12.30;;;;;;;;;;10116841;28;20057;-66
2022/10/09 19:10:37;;;;;;;16.23;12.20;;;;;;;;;;10107455;28;20045;-66
2022/10/09 19:15:31;;;;;;;14.27;12.70;;;;;;;;;;10099295;28;20063;-67
2022/10/09 19:20:30;;;;;;;15.77;12.98;;;;;;;;;;10106921;28;20044;-66
2022/10/09 19:25:25;;;;;;;14.38;12.98;;;;;;;;;;10109955;28;20051;-66
2022/10/09 19:30:20;;;;;;;16.13;13.50;;;;;;;;;;10117477;28;20040;-66
2022/10/09 19:35:14;;;;;;;18.02;13.77;;;;;;;;;;10111497;28;20053;-66
2022/10/09 19:40:08;;;;;;;15.75;14.15;;;;;;;;;;10111130;28;20555;-66
2022/10/09 19:45:04;;;;;;;15.60;14.13;;;;;;;;;;10119181;28;20544;-66
2022/10/09 19:49:58;;;;;;;16.08;14.23;;;;;;;;;;10103523;28;20515;-66
2022/10/09 19:54:52;;;;;;;16.20;14.65;;;;;;;;;;10112866;28;20125;-66
2022/10/09 19:59:46;;;;;;;19.00;17.10;;;;;;;;;;10112471;28;20053;-67
2022/10/09 20:04:40;;;;;;;21.90;19.65;;;;;;;;;;10117879;28;20383;-67
2022/10/09 20:09:34;;;;;;;20.35;18.05;;;;;;;;;;10117042;28;20137;-67
2022/10/09 20:14:28;;;;;;;20.77;18.27;;;;;;;;;;10116532;28;20041;-67
2022/10/09 20:19:23;;;;;;;24.48;18.67;;;;;;;;;;10111388;28;20069;-66
2022/10/09 20:24:18;;;;;;;19.08;17.17;;;;;;;;;;10116555;28;20107;-67
2022/10/09 20:29:15;;;;;;;20.33;18.15;;;;;;;;;;10111392;28;20069;-66
2022/10/09 20:34:09;;;;;;;22.10;17.67;;;;;;;;;;10107370;28;20056;-68
2022/10/09 20:39:08;;;;;;;19.30;17.40;;;;;;;;;;10102175;28;20073;-67
2022/10/09 20:44:02;;;;;;;18.70;16.92;;;;;;;;;;10116605;28;20049;-68
2022/10/09 20:48:56;;;;;;;23.25;17.33;;;;;;;;;;10105522;28;20140;-68
2022/10/09 20:53:54;;;;;;;19.20;17.40;;;;;;;;;;10103214;28;20049;-68
2022/10/09 20:58:48;;;;;;;23.35;19.38;;;;;;;;;;10102242;28;20393;-68
2022/10/09 21:03:42;;;;;;;19.77;17.80;;;;;;;;;;10102860;28;20063;-68
2022/10/09 21:08:36;;;;;;;21.70;17.50;;;;;;;;;;10105433;28;20041;-68
2022/10/09 21:13:30;;;;;;;21.95;19.75;;;;;;;;;;10101622;28;20458;-67
2022/10/09 21:18:24;;;;;;;19.90;18.13;;;;;;;;;;10101627;28;20053;-68
2022/10/09 21:23:19;;;;;;;20.10;18.10;;;;;;;;;;10100297;28;20060;-67
2022/10/09 21:28:12;;;;;;;21.65;19.52;;;;;;;;;;10098779;28;20107;-68
2022/10/09 21:33:06;;;;;;;22.48;20.35;;;;;;;;;;10099143;28;20487;-68
2022/10/09 21:38:01;;;;;;;21.42;19.17;;;;;;;;;;10100855;28;20052;-68
2022/10/09 21:42:55;;;;;;;22.08;20.08;;;;;;;;;;10098735;28;20136;-68
2022/10/09 21:47:49;;;;;;;26.10;18.50;;;;;;;;;;10098085;28;20459;-68
2022/10/09 21:52:44;;;;;;;20.98;18.88;;;;;;;;;;10103105;28;20052;-68
2022/10/09 21:57:37;;;;;;;23.02;19.23;;;;;;;;;;10101470;28;20072;-69
2022/10/09 22:02:30;;;;;;;24.67;18.48;;;;;;;;;;10103723;28;20120;-69
2022/10/09 22:07:25;;;;;;;20.40;18.15;;;;;;;;;;10100080;28;20534;-69
2022/10/09 22:12:18;;;;;;;22.15;19.77;;;;;;;;;;10100031;28;20513;-68
2022/10/09 22:17:12;;;;;;;24.85;19.08;;;;;;;;;;10094044;28;20407;-68
2022/10/09 22:22:06;;;;;;;21.15;17.85;;;;;;;;;;10094713;28;20412;-68
2022/10/09 22:26:59;;;;;;;22.48;19.25;;;;;;;;;;10090611;28;20423;-68
2022/10/09 22:31:53;;;;;;;22.95;20.48;;;;;;;;;;10096368;28;20052;-69
2022/10/09 22:36:46;;;;;;;22.75;20.30;;;;;;;;;;10094962;28;20048;-69
2022/10/09 22:41:39;;;;;;;23.27;20.95;;;;;;;;;;10095938;28;20055;-70
2022/10/09 22:46:38;;;;;;;25.33;21.45;;;;;;;;;;10101569;28;20056;-69
2022/10/09 22:51:32;;;;;;;30.73;21.35;;;;;;;;;;10103629;28;20068;-69
2022/10/09 22:56:37;;;;;;;25.98;23.20;;;;;;;;;;10107457;28;20507;-68
2022/10/09 23:02:00;;;;;;;26.10;23.23;;;;;;;;;;10104892;28;20041;-69
2022/10/09 23:06:56;;;;;;;26.17;23.67;;;;;;;;;;10101151;28;20049;-69
2022/10/09 23:11:50;;;;;;;25.00;22.30;;;;;;;;;;10111361;28;20057;-72
2022/10/09 23:16:43;;;;;;;27.17;22.77;;;;;;;;;;10105562;28;20111;-68
2022/10/09 23:21:39;;;;;;;29.80;23.90;;;;;;;;;;10103211;28;20053;-68
2022/10/09 23:26:35;;;;;;;26.80;22.75;;;;;;;;;;10108000;28;20450;-68
2022/10/09 23:31:30;;;;;;;26.50;23.92;;;;;;;;;;10108674;28;20045;-68
2022/10/09 23:36:26;;;;;;;26.67;23.20;;;;;;;;;;10101685;28;20056;-68
2022/10/09 23:41:22;;;;;;;24.33;21.75;;;;;;;;;;10106109;28;20483;-68
2022/10/09 23:46:36;;;;;;;22.70;20.35;;;;;;;;;;10102068;28;20044;-69
2022/10/09 23:51:30;;;;;;;21.50;19.40;;;;;;;;;;10104942;28;20143;-69
2022/10/09 23:56:29;;;;;;;18.65;16.70;;;;;;;;;;10101591;28;20048;-69
